PWSweather.com
Personal Weather Stations
Station Observations
KOMOKA2
Middlesex Centre, Komoka, ON N0L 1R0

Middlesex CentreKomoka, ON N0L 1R0

Lat: 42.9542444, Lon: -81.4348861

Elevation: 805

Station Type: Davis VP2 w/ Vue Console

Latest ConditionsUpdated 2:55:06 PM EST Wednesday, Dec 12, 2018
Currently Today's Max Today's Min Today's Average
Temperature 33.5°F0.8°C 34.7°F1.5°C 28.0°F-2.2°C 30.2°F-1.0°C
Dew Point 26.0°F-3.3°C 26.0°F-3.3°C 22.0°F-5.6°C 23.8°F-4.6°C
Winds 4.0 mph ESE6.4 kmh ESE 11.0 mph -17.7 kmh - - 1.7 mph 2.7 kmh
Wind Gusts 9.0 mph14.5 kmh 13.0 mph20.9 kmh - -
Humidity 74% 81% 69% 77%
Pressure 29.96 in1014.6 mb 30.09 in1019.0 mb 29.95 in1014.2 mb -
Precipitation - 0.02 in0.5 mm - -
Hour Temp Dew Point Humidity Winds Wind Gusts Pressure Precip Precip Rate Daily Precip Total
02:55 PM 33.5°F0.8°C 26.0°F-3.3°C 74% 4.0 mph ESE6.4 kmh ESE 9.0 mph14.5 kmh 29.96 in1014.6 mb 0.00 in0.0 mm 0.00 in0.0 mm 0.02 in0.5 mm
02:50 PM 33.6°F0.9°C 26.0°F-3.3°C 74% 1.0 mph SSE1.6 kmh SSE 9.0 mph14.5 kmh 29.96 in1014.6 mb 0.00 in0.0 mm 0.00 in0.0 mm 0.02 in0.5 mm
02:45 PM 33.6°F0.9°C 26.0°F-3.3°C 74% 4.0 mph ESE6.4 kmh ESE 9.0 mph14.5 kmh 29.96 in1014.6 mb 0.00 in0.0 mm 0.00 in0.0 mm 0.02 in0.5 mm
02:40 PM 33.5°F0.8°C 26.0°F-3.3°C 74% 4.0 mph S6.4 kmh S 9.0 mph14.5 kmh 29.96 in1014.6 mb 0.00 in0.0 mm 0.00 in0.0 mm 0.02 in0.5 mm
02:35 PM 33.4°F0.8°C 26.0°F-3.3°C 74% 2.0 mph ESE3.2 kmh ESE 11.0 mph17.7 kmh 29.95 in1014.2 mb 0.00 in0.0 mm 0.00 in0.0 mm 0.02 in0.5 mm
02:30 PM 33.3°F0.7°C 26.0°F-3.3°C 74% 2.0 mph E3.2 kmh E 11.0 mph17.7 kmh 29.95 in1014.2 mb 0.00 in0.0 mm 0.00 in0.0 mm 0.02 in0.5 mm
02:25 PM 33.4°F0.8°C 26.0°F-3.3°C 74% 1.0 mph ESE1.6 kmh ESE 11.0 mph17.7 kmh 29.95 in1014.2 mb 0.00 in0.0 mm 0.00 in0.0 mm 0.02 in0.5 mm
02:20 PM 33.4°F0.8°C 26.0°F-3.3°C 74% 4.0 mph NE6.4 kmh NE 8.0 mph12.9 kmh 29.96 in1014.6 mb 0.00 in0.0 mm 0.00 in0.0 mm 0.02 in0.5 mm
02:15 PM 33.5°F0.8°C 26.0°F-3.3°C 74% 1.0 mph SE1.6 kmh SE 8.0 mph12.9 kmh 29.97 in1014.9 mb 0.00 in0.0 mm 0.00 in0.0 mm 0.02 in0.5 mm
02:10 PM 33.5°F0.8°C 26.0°F-3.3°C 73% 1.0 mph ENE1.6 kmh ENE 10.0 mph16.1 kmh 29.97 in1014.9 mb 0.00 in0.0 mm 0.00 in0.0 mm 0.02 in0.5 mm
02:05 PM 33.4°F0.8°C 26.0°F-3.3°C 73% 5.0 mph SE8.0 kmh SE 10.0 mph16.1 kmh 29.96 in1014.6 mb 0.00 in0.0 mm 0.00 in0.0 mm 0.02 in0.5 mm
02:00 PM 33.4°F0.8°C 26.0°F-3.3°C 73% 4.0 mph E6.4 kmh E 9.0 mph14.5 kmh 29.96 in1014.6 mb 0.00 in0.0 mm 0.00 in0.0 mm 0.02 in0.5 mm
01:55 PM 33.3°F0.7°C 26.0°F-3.3°C 73% 3.0 mph NE4.8 kmh NE 9.0 mph14.5 kmh 29.97 in1014.9 mb 0.01 in0.3 mm 0.00 in0.0 mm 0.02 in0.5 mm
01:50 PM 33.3°F0.7°C 26.0°F-3.3°C 73% 1.0 mph WSW1.6 kmh WSW 12.0 mph19.3 kmh 29.97 in1014.9 mb 0.01 in0.3 mm 0.00 in0.0 mm 0.02 in0.5 mm
01:45 PM 33.3°F0.7°C 26.0°F-3.3°C 73% 2.0 mph SE3.2 kmh SE 13.0 mph20.9 kmh 29.98 in1015.2 mb 0.01 in0.3 mm 0.00 in0.0 mm 0.02 in0.5 mm
01:40 PM 33.3°F0.7°C 25.0°F-3.9°C 72% 11.0 mph ENE17.7 kmh ENE 13.0 mph20.9 kmh 29.98 in1015.2 mb 0.01 in0.3 mm 0.00 in0.0 mm 0.02 in0.5 mm
01:35 PM 33.3°F0.7°C 25.0°F-3.9°C 72% 10.0 mph S16.1 kmh S 10.0 mph16.1 kmh 29.98 in1015.2 mb 0.01 in0.3 mm 0.00 in0.0 mm 0.02 in0.5 mm
01:30 PM 33.3°F0.7°C 25.0°F-3.9°C 72% 4.0 mph NE6.4 kmh NE 8.0 mph12.9 kmh 29.98 in1015.2 mb 0.01 in0.3 mm 0.00 in0.0 mm 0.02 in0.5 mm
01:25 PM 33.3°F0.7°C 25.0°F-3.9°C 72% 3.0 mph S4.8 kmh S 11.0 mph17.7 kmh 29.98 in1015.2 mb 0.01 in0.3 mm 0.00 in0.0 mm 0.02 in0.5 mm
01:20 PM 33.3°F0.7°C 25.0°F-3.9°C 72% 8.0 mph S12.9 kmh S 13.0 mph20.9 kmh 29.98 in1015.2 mb 0.01 in0.3 mm 0.00 in0.0 mm 0.02 in0.5 mm
01:15 PM 33.4°F0.8°C 25.0°F-3.9°C 71% 2.0 mph S3.2 kmh S 13.0 mph20.9 kmh 29.98 in1015.2 mb 0.01 in0.3 mm 0.00 in0.0 mm 0.02 in0.5 mm
01:10 PM 33.7°F0.9°C 25.0°F-3.9°C 71% 11.0 mph SE17.7 kmh SE 11.0 mph17.7 kmh 29.99 in1015.6 mb 0.01 in0.3 mm 0.00 in0.0 mm 0.02 in0.5 mm
01:05 PM 34.0°F1.1°C 26.0°F-3.3°C 71% 2.0 mph SSE3.2 kmh SSE 13.0 mph20.9 kmh 30.00 in1015.9 mb 0.01 in0.3 mm 0.00 in0.0 mm 0.02 in0.5 mm
01:00 PM 34.3°F1.3°C 25.0°F-3.9°C 70% 3.0 mph SE4.8 kmh SE 8.0 mph12.9 kmh 30.00 in1015.9 mb 0.01 in0.3 mm 0.01 in0.3 mm 0.02 in0.5 mm
12:55 PM 34.6°F1.4°C 26.0°F-3.3°C 70% 5.0 mph S8.0 kmh S 9.0 mph14.5 kmh 29.99 in1015.6 mb 0.00 in0.0 mm 0.00 in0.0 mm 0.01 in0.3 mm
12:50 PM 34.7°F1.5°C 26.0°F-3.3°C 70% 4.0 mph SSE6.4 kmh SSE 11.0 mph17.7 kmh 30.00 in1015.9 mb 0.00 in0.0 mm 0.00 in0.0 mm 0.01 in0.3 mm
12:45 PM 34.7°F1.5°C 25.0°F-3.9°C 69% 10.0 mph S16.1 kmh S 11.0 mph17.7 kmh 30.00 in1015.9 mb 0.00 in0.0 mm 0.00 in0.0 mm 0.01 in0.3 mm
12:40 PM 34.6°F1.4°C 26.0°F-3.3°C 71% 2.0 mph S3.2 kmh S 8.0 mph12.9 kmh 30.00 in1015.9 mb 0.00 in0.0 mm 0.00 in0.0 mm 0.01 in0.3 mm
12:35 PM 34.3°F1.3°C 26.0°F-3.3°C 71% 6.0 mph ESE9.7 kmh ESE 10.0 mph16.1 kmh 29.99 in1015.6 mb 0.00 in0.0 mm 0.00 in0.0 mm 0.01 in0.3 mm
12:30 PM 33.6°F0.9°C 25.0°F-3.9°C 72% 5.0 mph ESE8.0 kmh ESE 10.0 mph16.1 kmh 29.99 in1015.6 mb 0.00 in0.0 mm 0.00 in0.0 mm 0.01 in0.3 mm
12:25 PM 33.2°F0.7°C 25.0°F-3.9°C 73% 4.0 mph S6.4 kmh S 10.0 mph16.1 kmh 29.99 in1015.6 mb 0.00 in0.0 mm 0.00 in0.0 mm 0.01 in0.3 mm
12:20 PM 33.2°F0.7°C 25.0°F-3.9°C 73% 6.0 mph SE9.7 kmh SE 8.0 mph12.9 kmh 30.00 in1015.9 mb 0.00 in0.0 mm 0.00 in0.0 mm 0.01 in0.3 mm
12:15 PM 33.1°F0.6°C 25.0°F-3.9°C 73% 1.0 mph S1.6 kmh S 10.0 mph16.1 kmh 29.99 in1015.6 mb 0.01 in0.3 mm 0.00 in0.0 mm 0.01 in0.3 mm
12:10 PM 33.1°F0.6°C 25.0°F-3.9°C 73% 4.0 mph ESE6.4 kmh ESE 12.0 mph19.3 kmh 30.00 in1015.9 mb 0.01 in0.3 mm 0.00 in0.0 mm 0.01 in0.3 mm
12:05 PM 33.1°F0.6°C 25.0°F-3.9°C 73% 2.0 mph ESE3.2 kmh ESE 12.0 mph19.3 kmh 30.00 in1015.9 mb 0.01 in0.3 mm 0.00 in0.0 mm 0.01 in0.3 mm
12:00 PM 33.3°F0.7°C 26.0°F-3.3°C 74% 5.0 mph S8.0 kmh S 9.0 mph14.5 kmh 30.01 in1016.3 mb 0.01 in0.3 mm 0.00 in0.0 mm 0.01 in0.3 mm
11:55 AM 33.2°F0.7°C 26.0°F-3.3°C 74% 2.0 mph SE3.2 kmh SE 10.0 mph16.1 kmh 30.00 in1015.9 mb 0.01 in0.3 mm 0.00 in0.0 mm 0.01 in0.3 mm
11:50 AM 33.2°F0.7°C 26.0°F-3.3°C 74% 1.0 mph SE1.6 kmh SE 11.0 mph17.7 kmh 30.01 in1016.3 mb 0.01 in0.3 mm 0.00 in0.0 mm 0.01 in0.3 mm
11:45 AM 33.3°F0.7°C 26.0°F-3.3°C 75% 3.0 mph SSE4.8 kmh SSE 7.0 mph11.3 kmh 30.02 in1016.6 mb 0.01 in0.3 mm 0.00 in0.0 mm 0.01 in0.3 mm
11:40 AM 33.3°F0.7°C 26.0°F-3.3°C 74% 1.0 mph SSE1.6 kmh SSE 5.0 mph8.0 kmh 30.02 in1016.6 mb 0.01 in0.3 mm 0.00 in0.0 mm 0.01 in0.3 mm
11:35 AM 33.4°F0.8°C 26.0°F-3.3°C 74% 2.0 mph S3.2 kmh S 9.0 mph14.5 kmh 30.02 in1016.6 mb 0.01 in0.3 mm 0.00 in0.0 mm 0.01 in0.3 mm
11:30 AM 33.4°F0.8°C 26.0°F-3.3°C 74% 9.0 mph ENE14.5 kmh ENE 9.0 mph14.5 kmh 30.02 in1016.6 mb 0.01 in0.3 mm 0.00 in0.0 mm 0.01 in0.3 mm
11:25 AM 33.3°F0.7°C 26.0°F-3.3°C 73% 6.0 mph SE9.7 kmh SE 8.0 mph12.9 kmh 30.02 in1016.6 mb 0.01 in0.3 mm 0.00 in0.0 mm 0.01 in0.3 mm
11:20 AM 33.3°F0.7°C 26.0°F-3.3°C 73% 4.0 mph E6.4 kmh E 6.0 mph9.7 kmh 30.02 in1016.6 mb 0.01 in0.3 mm 0.12 in3.0 mm 0.01 in0.3 mm
11:15 AM 33.3°F0.7°C 26.0°F-3.3°C 73% 2.0 mph E3.2 kmh E 5.0 mph8.0 kmh 30.03 in1016.9 mb 0.00 in0.0 mm 0.00 in0.0 mm 0.00 in0.0 mm
11:10 AM 33.4°F0.8°C 26.0°F-3.3°C 73% 1.0 mph ESE1.6 kmh ESE 5.0 mph8.0 kmh 30.03 in1016.9 mb 0.00 in0.0 mm 0.00 in0.0 mm 0.00 in0.0 mm
11:05 AM 33.4°F0.8°C 26.0°F-3.3°C 74% 3.0 mph SE4.8 kmh SE 5.0 mph8.0 kmh 30.03 in1016.9 mb 0.00 in0.0 mm 0.00 in0.0 mm 0.00 in0.0 mm
11:00 AM 33.4°F0.8°C 26.0°F-3.3°C 74% 5.0 mph E8.0 kmh E 5.0 mph8.0 kmh 30.03 in1016.9 mb 0.00 in0.0 mm 0.00 in0.0 mm 0.00 in0.0 mm
10:55 AM 33.3°F0.7°C 26.0°F-3.3°C 74% 2.0 mph E3.2 kmh E 6.0 mph9.7 kmh 30.04 in1017.3 mb 0.00 in0.0 mm 0.00 in0.0 mm 0.00 in0.0 mm
10:50 AM 33.3°F0.7°C 26.0°F-3.3°C 74% 2.0 mph SE3.2 kmh SE 6.0 mph9.7 kmh 30.04 in1017.3 mb 0.00 in0.0 mm 0.00 in0.0 mm 0.00 in0.0 mm
10:45 AM 33.1°F0.6°C 26.0°F-3.3°C 74% 3.0 mph SSE4.8 kmh SSE 7.0 mph11.3 kmh 30.05 in1017.6 mb 0.00 in0.0 mm 0.00 in0.0 mm 0.00 in0.0 mm
10:40 AM 33.1°F0.6°C 26.0°F-3.3°C 74% 3.0 mph ESE4.8 kmh ESE 7.0 mph11.3 kmh 30.05 in1017.6 mb 0.00 in0.0 mm 0.00 in0.0 mm 0.00 in0.0 mm
10:35 AM 32.8°F0.4°C 26.0°F-3.3°C 75% 3.0 mph NE4.8 kmh NE 5.0 mph8.0 kmh 30.05 in1017.6 mb 0.00 in0.0 mm 0.00 in0.0 mm 0.00 in0.0 mm
10:30 AM 32.7°F0.4°C 26.0°F-3.3°C 75% 1.0 mph SE1.6 kmh SE 4.0 mph6.4 kmh 30.06 in1017.9 mb 0.00 in0.0 mm 0.00 in0.0 mm 0.00 in0.0 mm
10:25 AM 32.6°F0.3°C 26.0°F-3.3°C 75% 2.0 mph ESE3.2 kmh ESE 5.0 mph8.0 kmh 30.07 in1018.3 mb 0.00 in0.0 mm 0.00 in0.0 mm 0.00 in0.0 mm
10:20 AM 32.5°F0.3°C 25.0°F-3.9°C 75% 1.0 mph SE1.6 kmh SE 4.0 mph6.4 kmh 30.07 in1018.3 mb 0.00 in0.0 mm 0.00 in0.0 mm 0.00 in0.0 mm
10:15 AM 32.2°F0.1°C 25.0°F-3.9°C 75% Calm Calm 3.0 mph4.8 kmh 30.07 in1018.3 mb 0.00 in0.0 mm 0.00 in0.0 mm 0.00 in0.0 mm
10:10 AM 32.0°F0.0°C 25.0°F-3.9°C 75% 1.0 mph SE1.6 kmh SE 2.0 mph3.2 kmh 30.07 in1018.3 mb 0.00 in0.0 mm 0.00 in0.0 mm 0.00 in0.0 mm
10:05 AM 31.9°F-0.1°C 25.0°F-3.9°C 74% 1.0 mph SE1.6 kmh SE 5.0 mph8.0 kmh 30.07 in1018.3 mb 0.00 in0.0 mm 0.00 in0.0 mm 0.00 in0.0 mm
10:00 AM 31.7°F-0.2°C 24.0°F-4.4°C 74% 1.0 mph SSE1.6 kmh SSE 5.0 mph8.0 kmh 30.07 in1018.3 mb 0.00 in0.0 mm 0.00 in0.0 mm 0.00 in0.0 mm
09:55 AM 31.4°F-0.3°C 24.0°F-4.4°C 74% 2.0 mph SE3.2 kmh SE 3.0 mph4.8 kmh 30.07 in1018.3 mb 0.00 in0.0 mm 0.00 in0.0 mm 0.00 in0.0 mm
09:50 AM 31.3°F-0.4°C 24.0°F-4.4°C 74% Calm Calm 3.0 mph4.8 kmh 30.06 in1017.9 mb 0.00 in0.0 mm 0.00 in0.0 mm 0.00 in0.0 mm
09:45 AM 31.2°F-0.4°C 24.0°F-4.4°C 75% Calm Calm 3.0 mph4.8 kmh 30.06 in1017.9 mb 0.00 in0.0 mm 0.00 in0.0 mm 0.00 in0.0 mm
09:40 AM 31.1°F-0.5°C 24.0°F-4.4°C 75% 1.0 mph E1.6 kmh E 6.0 mph9.7 kmh 30.06 in1017.9 mb 0.00 in0.0 mm 0.00 in0.0 mm 0.00 in0.0 mm
09:35 AM 30.9°F-0.6°C 24.0°F-4.4°C 75% 1.0 mph S1.6 kmh S 6.0 mph9.7 kmh 30.06 in1017.9 mb 0.00 in0.0 mm 0.00 in0.0 mm 0.00 in0.0 mm
09:30 AM 30.8°F-0.7°C 24.0°F-4.4°C 75% 1.0 mph SSE1.6 kmh SSE 3.0 mph4.8 kmh 30.07 in1018.3 mb 0.00 in0.0 mm 0.00 in0.0 mm 0.00 in0.0 mm
09:25 AM 30.6°F-0.8°C 24.0°F-4.4°C 75% 1.0 mph SE1.6 kmh SE 6.0 mph9.7 kmh 30.06 in1017.9 mb 0.00 in0.0 mm 0.00 in0.0 mm 0.00 in0.0 mm
09:20 AM 30.2°F-1.0°C 24.0°F-4.4°C 77% 3.0 mph NE4.8 kmh NE 6.0 mph9.7 kmh 30.06 in1017.9 mb 0.00 in0.0 mm 0.00 in0.0 mm 0.00 in0.0 mm
09:15 AM 29.8°F-1.2°C 23.0°F-5.0°C 77% 1.0 mph SE1.6 kmh SE 4.0 mph6.4 kmh 30.06 in1017.9 mb 0.00 in0.0 mm 0.00 in0.0 mm 0.00 in0.0 mm
09:10 AM 29.3°F-1.5°C 24.0°F-4.4°C 79% 1.0 mph SE1.6 kmh SE 5.0 mph8.0 kmh 30.06 in1017.9 mb 0.00 in0.0 mm 0.00 in0.0 mm 0.00 in0.0 mm
09:05 AM 28.8°F-1.8°C 23.0°F-5.0°C 79% 2.0 mph E3.2 kmh E 3.0 mph4.8 kmh 30.07 in1018.3 mb 0.00 in0.0 mm 0.00 in0.0 mm 0.00 in0.0 mm
09:00 AM 28.6°F-1.9°C 23.0°F-5.0°C 80% 1.0 mph E1.6 kmh E 3.0 mph4.8 kmh 30.07 in1018.3 mb 0.00 in0.0 mm 0.00 in0.0 mm 0.00 in0.0 mm
08:55 AM 28.5°F-1.9°C 23.0°F-5.0°C 80% Calm Calm 1.0 mph1.6 kmh 30.07 in1018.3 mb 0.00 in0.0 mm 0.00 in0.0 mm 0.00 in0.0 mm
08:50 AM 28.4°F-2.0°C 23.0°F-5.0°C 80% Calm Calm 2.0 mph3.2 kmh 30.08 in1018.6 mb 0.00 in0.0 mm 0.00 in0.0 mm 0.00 in0.0 mm
08:45 AM 28.3°F-2.1°C 23.0°F-5.0°C 80% 1.0 mph WSW1.6 kmh WSW 2.0 mph3.2 kmh 30.08 in1018.6 mb 0.00 in0.0 mm 0.00 in0.0 mm 0.00 in0.0 mm
08:40 AM 28.2°F-2.1°C 23.0°F-5.0°C 80% 2.0 mph WSW3.2 kmh WSW 2.0 mph3.2 kmh 30.08 in1018.6 mb 0.00 in0.0 mm 0.00 in0.0 mm 0.00 in0.0 mm
08:35 AM 28.1°F-2.2°C 23.0°F-5.0°C 80% Calm Calm 1.0 mph1.6 kmh 30.08 in1018.6 mb 0.00 in0.0 mm 0.00 in0.0 mm 0.00 in0.0 mm
08:30 AM 28.1°F-2.2°C 23.0°F-5.0°C 80% Calm Calm 2.0 mph3.2 kmh 30.07 in1018.3 mb 0.00 in0.0 mm 0.00 in0.0 mm 0.00 in0.0 mm
08:25 AM 28.1°F-2.2°C 23.0°F-5.0°C 80% 1.0 mph WSW1.6 kmh WSW 2.0 mph3.2 kmh 30.07 in1018.3 mb 0.00 in0.0 mm 0.00 in0.0 mm 0.00 in0.0 mm
08:20 AM 28.1°F-2.2°C 23.0°F-5.0°C 80% Calm Calm 2.0 mph3.2 kmh 30.08 in1018.6 mb 0.00 in0.0 mm 0.00 in0.0 mm 0.00 in0.0 mm
08:15 AM 28.1°F-2.2°C 23.0°F-5.0°C 80% Calm Calm 2.0 mph3.2 kmh 30.08 in1018.6 mb 0.00 in0.0 mm 0.00 in0.0 mm 0.00 in0.0 mm
08:10 AM 28.0°F-2.2°C 23.0°F-5.0°C 80% Calm Calm 1.0 mph1.6 kmh 30.08 in1018.6 mb 0.00 in0.0 mm 0.00 in0.0 mm 0.00 in0.0 mm
08:05 AM 28.1°F-2.2°C 23.0°F-5.0°C 80% Calm Calm 1.0 mph1.6 kmh 30.08 in1018.6 mb 0.00 in0.0 mm 0.00 in0.0 mm 0.00 in0.0 mm
08:00 AM 28.1°F-2.2°C 22.0°F-5.6°C 79% Calm Calm 1.0 mph1.6 kmh 30.08 in1018.6 mb 0.00 in0.0 mm 0.00 in0.0 mm 0.00 in0.0 mm
07:55 AM 28.1°F-2.2°C 22.0°F-5.6°C 79% Calm Calm 1.0 mph1.6 kmh 30.08 in1018.6 mb 0.00 in0.0 mm 0.00 in0.0 mm 0.00 in0.0 mm
07:50 AM 28.1°F-2.2°C 22.0°F-5.6°C 79% Calm Calm 1.0 mph1.6 kmh 30.08 in1018.6 mb 0.00 in0.0 mm 0.00 in0.0 mm 0.00 in0.0 mm
07:45 AM 28.1°F-2.2°C 22.0°F-5.6°C 79% Calm Calm 1.0 mph1.6 kmh 30.08 in1018.6 mb 0.00 in0.0 mm 0.00 in0.0 mm 0.00 in0.0 mm
07:40 AM 28.1°F-2.2°C 22.0°F-5.6°C 79% Calm Calm 1.0 mph1.6 kmh 30.08 in1018.6 mb 0.00 in0.0 mm 0.00 in0.0 mm 0.00 in0.0 mm
07:35 AM 28.1°F-2.2°C 22.0°F-5.6°C 79% Calm Calm 1.0 mph1.6 kmh 30.08 in1018.6 mb 0.00 in0.0 mm 0.00 in0.0 mm 0.00 in0.0 mm
07:30 AM 28.1°F-2.2°C 22.0°F-5.6°C 79% Calm Calm 1.0 mph1.6 kmh 30.08 in1018.6 mb 0.00 in0.0 mm 0.00 in0.0 mm 0.00 in0.0 mm
07:25 AM 28.1°F-2.2°C 22.0°F-5.6°C 79% Calm Calm 1.0 mph1.6 kmh 30.09 in1019.0 mb 0.00 in0.0 mm 0.00 in0.0 mm 0.00 in0.0 mm
07:20 AM 28.1°F-2.2°C 22.0°F-5.6°C 79% Calm Calm -- 30.08 in1018.6 mb 0.00 in0.0 mm 0.00 in0.0 mm 0.00 in0.0 mm
07:15 AM 28.2°F-2.1°C 22.0°F-5.6°C 79% Calm Calm 1.0 mph1.6 kmh 30.09 in1019.0 mb 0.00 in0.0 mm 0.00 in0.0 mm 0.00 in0.0 mm
07:10 AM 28.1°F-2.2°C 22.0°F-5.6°C 79% Calm Calm 1.0 mph1.6 kmh 30.09 in1019.0 mb 0.00 in0.0 mm 0.00 in0.0 mm 0.00 in0.0 mm
07:05 AM 28.2°F-2.1°C 22.0°F-5.6°C 79% 1.0 mph WSW1.6 kmh WSW 1.0 mph1.6 kmh 30.09 in1019.0 mb 0.00 in0.0 mm 0.00 in0.0 mm 0.00 in0.0 mm
07:00 AM 28.2°F-2.1°C 22.0°F-5.6°C 79% 1.0 mph WSW1.6 kmh WSW 1.0 mph1.6 kmh 30.08 in1018.6 mb 0.00 in0.0 mm 0.00 in0.0 mm 0.00 in0.0 mm
06:55 AM 28.2°F-2.1°C 22.0°F-5.6°C 79% Calm Calm 2.0 mph3.2 kmh 30.09 in1019.0 mb 0.00 in0.0 mm 0.00 in0.0 mm 0.00 in0.0 mm
06:50 AM 28.2°F-2.1°C 22.0°F-5.6°C 79% 1.0 mph WSW1.6 kmh WSW 2.0 mph3.2 kmh 30.09 in1019.0 mb 0.00 in0.0 mm 0.00 in0.0 mm 0.00 in0.0 mm
06:45 AM 28.2°F-2.1°C 22.0°F-5.6°C 79% Calm Calm 1.0 mph1.6 kmh 30.09 in1019.0 mb 0.00 in0.0 mm 0.00 in0.0 mm 0.00 in0.0 mm
06:40 AM 28.2°F-2.1°C 22.0°F-5.6°C 79% Calm Calm 2.0 mph3.2 kmh 30.09 in1019.0 mb 0.00 in0.0 mm 0.00 in0.0 mm 0.00 in0.0 mm
06:35 AM 28.2°F-2.1°C 22.0°F-5.6°C 79% 1.0 mph WSW1.6 kmh WSW 2.0 mph3.2 kmh 30.09 in1019.0 mb 0.00 in0.0 mm 0.00 in0.0 mm 0.00 in0.0 mm
06:30 AM 28.2°F-2.1°C 22.0°F-5.6°C 79% Calm Calm 1.0 mph1.6 kmh 30.09 in1019.0 mb 0.00 in0.0 mm 0.00 in0.0 mm 0.00 in0.0 mm
06:25 AM 28.3°F-2.1°C 23.0°F-5.0°C 79% 1.0 mph WSW1.6 kmh WSW 2.0 mph3.2 kmh 30.09 in1019.0 mb 0.00 in0.0 mm 0.00 in0.0 mm 0.00 in0.0 mm
06:20 AM 28.3°F-2.1°C 23.0°F-5.0°C 79% Calm Calm 2.0 mph3.2 kmh 30.09 in1019.0 mb 0.00 in0.0 mm 0.00 in0.0 mm 0.00 in0.0 mm
06:15 AM 28.3°F-2.1°C 23.0°F-5.0°C 79% 1.0 mph WSW1.6 kmh WSW 2.0 mph3.2 kmh 30.09 in1019.0 mb 0.00 in0.0 mm 0.00 in0.0 mm 0.00 in0.0 mm
06:10 AM 28.3°F-2.1°C 23.0°F-5.0°C 79% 1.0 mph WSW1.6 kmh WSW 1.0 mph1.6 kmh 30.09 in1019.0 mb 0.00 in0.0 mm 0.00 in0.0 mm 0.00 in0.0 mm
06:05 AM 28.3°F-2.1°C 23.0°F-5.0°C 79% Calm Calm 1.0 mph1.6 kmh 30.08 in1018.6 mb 0.00 in0.0 mm 0.00 in0.0 mm 0.00 in0.0 mm
06:00 AM 28.3°F-2.1°C 23.0°F-5.0°C 79% Calm Calm 1.0 mph1.6 kmh 30.08 in1018.6 mb 0.00 in0.0 mm 0.00 in0.0 mm 0.00 in0.0 mm
05:55 AM 28.3°F-2.1°C 23.0°F-5.0°C 79% Calm Calm 1.0 mph1.6 kmh 30.08 in1018.6 mb 0.00 in0.0 mm 0.00 in0.0 mm 0.00 in0.0 mm
05:50 AM 28.3°F-2.1°C 23.0°F-5.0°C 79% 1.0 mph WSW1.6 kmh WSW 1.0 mph1.6 kmh 30.07 in1018.3 mb 0.00 in0.0 mm 0.00 in0.0 mm 0.00 in0.0 mm
05:45 AM 28.3°F-2.1°C 23.0°F-5.0°C 79% Calm Calm -- 30.07 in1018.3 mb 0.00 in0.0 mm 0.00 in0.0 mm 0.00 in0.0 mm
05:40 AM 28.4°F-2.0°C 23.0°F-5.0°C 79% Calm Calm -- 30.07 in1018.3 mb 0.00 in0.0 mm 0.00 in0.0 mm 0.00 in0.0 mm
05:35 AM 28.4°F-2.0°C 23.0°F-5.0°C 79% Calm Calm 1.0 mph1.6 kmh 30.07 in1018.3 mb 0.00 in0.0 mm 0.00 in0.0 mm 0.00 in0.0 mm
05:30 AM 28.4°F-2.0°C 23.0°F-5.0°C 79% Calm Calm 1.0 mph1.6 kmh 30.07 in1018.3 mb 0.00 in0.0 mm 0.00 in0.0 mm 0.00 in0.0 mm
05:25 AM 28.4°F-2.0°C 23.0°F-5.0°C 79% Calm Calm 1.0 mph1.6 kmh 30.07 in1018.3 mb 0.00 in0.0 mm 0.00 in0.0 mm 0.00 in0.0 mm
05:20 AM 28.4°F-2.0°C 23.0°F-5.0°C 79% Calm Calm 1.0 mph1.6 kmh 30.07 in1018.3 mb 0.00 in0.0 mm 0.00 in0.0 mm 0.00 in0.0 mm
05:15 AM 28.4°F-2.0°C 23.0°F-5.0°C 79% Calm Calm 1.0 mph1.6 kmh 30.07 in1018.3 mb 0.00 in0.0 mm 0.00 in0.0 mm 0.00 in0.0 mm
05:10 AM 28.4°F-2.0°C 23.0°F-5.0°C 79% Calm Calm 2.0 mph3.2 kmh 30.07 in1018.3 mb 0.00 in0.0 mm 0.00 in0.0 mm 0.00 in0.0 mm
05:05 AM 28.5°F-1.9°C 23.0°F-5.0°C 79% Calm Calm 2.0 mph3.2 kmh 30.07 in1018.3 mb 0.00 in0.0 mm 0.00 in0.0 mm 0.00 in0.0 mm
05:00 AM 28.5°F-1.9°C 23.0°F-5.0°C 79% Calm Calm 2.0 mph3.2 kmh 30.07 in1018.3 mb 0.00 in0.0 mm 0.00 in0.0 mm 0.00 in0.0 mm
04:55 AM 28.5°F-1.9°C 23.0°F-5.0°C 79% 1.0 mph WSW1.6 kmh WSW 2.0 mph3.2 kmh 30.07 in1018.3 mb 0.00 in0.0 mm 0.00 in0.0 mm 0.00 in0.0 mm
04:50 AM 28.5°F-1.9°C 23.0°F-5.0°C 79% Calm Calm 3.0 mph4.8 kmh 30.08 in1018.6 mb 0.00 in0.0 mm 0.00 in0.0 mm 0.00 in0.0 mm
04:45 AM 28.5°F-1.9°C 23.0°F-5.0°C 79% 3.0 mph WSW4.8 kmh WSW 3.0 mph4.8 kmh 30.08 in1018.6 mb 0.00 in0.0 mm 0.00 in0.0 mm 0.00 in0.0 mm
04:40 AM 28.5°F-1.9°C 23.0°F-5.0°C 79% 2.0 mph WSW3.2 kmh WSW 4.0 mph6.4 kmh 30.08 in1018.6 mb 0.00 in0.0 mm 0.00 in0.0 mm 0.00 in0.0 mm
04:35 AM 28.5°F-1.9°C 23.0°F-5.0°C 79% 1.0 mph SW1.6 kmh SW 4.0 mph6.4 kmh 30.08 in1018.6 mb 0.00 in0.0 mm 0.00 in0.0 mm 0.00 in0.0 mm
04:30 AM 28.5°F-1.9°C 23.0°F-5.0°C 79% 1.0 mph SW1.6 kmh SW 4.0 mph6.4 kmh 30.08 in1018.6 mb 0.00 in0.0 mm 0.00 in0.0 mm 0.00 in0.0 mm
04:25 AM 28.6°F-1.9°C 23.0°F-5.0°C 79% 2.0 mph WSW3.2 kmh WSW 4.0 mph6.4 kmh 30.08 in1018.6 mb 0.00 in0.0 mm 0.00 in0.0 mm 0.00 in0.0 mm
04:20 AM 28.6°F-1.9°C 23.0°F-5.0°C 79% Calm Calm 3.0 mph4.8 kmh 30.09 in1019.0 mb 0.00 in0.0 mm 0.00 in0.0 mm 0.00 in0.0 mm
04:15 AM 28.6°F-1.9°C 23.0°F-5.0°C 79% Calm Calm 3.0 mph4.8 kmh 30.09 in1019.0 mb 0.00 in0.0 mm 0.00 in0.0 mm 0.00 in0.0 mm
04:10 AM 28.6°F-1.9°C 23.0°F-5.0°C 79% 1.0 mph SW1.6 kmh SW 2.0 mph3.2 kmh 30.09 in1019.0 mb 0.00 in0.0 mm 0.00 in0.0 mm 0.00 in0.0 mm
04:05 AM 28.6°F-1.9°C 23.0°F-5.0°C 79% 1.0 mph SW1.6 kmh SW 3.0 mph4.8 kmh 30.09 in1019.0 mb 0.00 in0.0 mm 0.00 in0.0 mm 0.00 in0.0 mm
04:00 AM 28.6°F-1.9°C 23.0°F-5.0°C 79% 2.0 mph SW3.2 kmh SW 3.0 mph4.8 kmh 30.09 in1019.0 mb 0.00 in0.0 mm 0.00 in0.0 mm 0.00 in0.0 mm
03:55 AM 28.7°F-1.8°C 23.0°F-5.0°C 79% 2.0 mph SW3.2 kmh SW 3.0 mph4.8 kmh 30.09 in1019.0 mb 0.00 in0.0 mm 0.00 in0.0 mm 0.00 in0.0 mm
03:50 AM 28.7°F-1.8°C 23.0°F-5.0°C 79% 2.0 mph SW3.2 kmh SW 3.0 mph4.8 kmh 30.09 in1019.0 mb 0.00 in0.0 mm 0.00 in0.0 mm 0.00 in0.0 mm
03:45 AM 28.7°F-1.8°C 23.0°F-5.0°C 79% 1.0 mph SW1.6 kmh SW 3.0 mph4.8 kmh 30.09 in1019.0 mb 0.00 in0.0 mm 0.00 in0.0 mm 0.00 in0.0 mm
03:40 AM 28.6°F-1.9°C 23.0°F-5.0°C 79% 2.0 mph SW3.2 kmh SW 3.0 mph4.8 kmh 30.09 in1019.0 mb 0.00 in0.0 mm 0.00 in0.0 mm 0.00 in0.0 mm
03:35 AM 28.7°F-1.8°C 23.0°F-5.0°C 79% 1.0 mph SW1.6 kmh SW 2.0 mph3.2 kmh 30.08 in1018.6 mb 0.00 in0.0 mm 0.00 in0.0 mm 0.00 in0.0 mm
03:30 AM 28.7°F-1.8°C 23.0°F-5.0°C 79% 1.0 mph SW1.6 kmh SW 2.0 mph3.2 kmh 30.08 in1018.6 mb 0.00 in0.0 mm 0.00 in0.0 mm 0.00 in0.0 mm
03:25 AM 28.7°F-1.8°C 23.0°F-5.0°C 79% 1.0 mph SW1.6 kmh SW 3.0 mph4.8 kmh 30.08 in1018.6 mb 0.00 in0.0 mm 0.00 in0.0 mm 0.00 in0.0 mm
03:20 AM 28.7°F-1.8°C 23.0°F-5.0°C 79% 1.0 mph SW1.6 kmh SW 3.0 mph4.8 kmh 30.08 in1018.6 mb 0.00 in0.0 mm 0.00 in0.0 mm 0.00 in0.0 mm
03:15 AM 28.7°F-1.8°C 23.0°F-5.0°C 79% Calm Calm 2.0 mph3.2 kmh 30.08 in1018.6 mb 0.00 in0.0 mm 0.00 in0.0 mm 0.00 in0.0 mm
03:10 AM 28.7°F-1.8°C 23.0°F-5.0°C 79% 2.0 mph SW3.2 kmh SW 2.0 mph3.2 kmh 30.08 in1018.6 mb 0.00 in0.0 mm 0.00 in0.0 mm 0.00 in0.0 mm
03:05 AM 28.7°F-1.8°C 23.0°F-5.0°C 79% Calm Calm 3.0 mph4.8 kmh 30.08 in1018.6 mb 0.00 in0.0 mm 0.00 in0.0 mm 0.00 in0.0 mm
03:00 AM 28.7°F-1.8°C 23.0°F-5.0°C 79% 3.0 mph SW4.8 kmh SW 4.0 mph6.4 kmh 30.08 in1018.6 mb 0.00 in0.0 mm 0.00 in0.0 mm 0.00 in0.0 mm
02:55 AM 28.7°F-1.8°C 23.0°F-5.0°C 79% 1.0 mph SW1.6 kmh SW 5.0 mph8.0 kmh 30.08 in1018.6 mb 0.00 in0.0 mm 0.00 in0.0 mm 0.00 in0.0 mm
02:50 AM 28.7°F-1.8°C 23.0°F-5.0°C 79% 2.0 mph W3.2 kmh W 6.0 mph9.7 kmh 30.08 in1018.6 mb 0.00 in0.0 mm 0.00 in0.0 mm 0.00 in0.0 mm
02:45 AM 28.7°F-1.8°C 23.0°F-5.0°C 79% 3.0 mph WSW4.8 kmh WSW 6.0 mph9.7 kmh 30.08 in1018.6 mb 0.00 in0.0 mm 0.00 in0.0 mm 0.00 in0.0 mm
02:40 AM 28.7°F-1.8°C 23.0°F-5.0°C 79% 2.0 mph SW3.2 kmh SW 4.0 mph6.4 kmh 30.08 in1018.6 mb 0.00 in0.0 mm 0.00 in0.0 mm 0.00 in0.0 mm
02:35 AM 28.7°F-1.8°C 23.0°F-5.0°C 79% 3.0 mph WSW4.8 kmh WSW 4.0 mph6.4 kmh 30.08 in1018.6 mb 0.00 in0.0 mm 0.00 in0.0 mm 0.00 in0.0 mm
02:30 AM 28.7°F-1.8°C 23.0°F-5.0°C 79% 1.0 mph WSW1.6 kmh WSW 4.0 mph6.4 kmh 30.08 in1018.6 mb 0.00 in0.0 mm 0.00 in0.0 mm 0.00 in0.0 mm
02:25 AM 28.7°F-1.8°C 23.0°F-5.0°C 79% 1.0 mph WSW1.6 kmh WSW 3.0 mph4.8 kmh 30.08 in1018.6 mb 0.00 in0.0 mm 0.00 in0.0 mm 0.00 in0.0 mm
02:20 AM 28.7°F-1.8°C 23.0°F-5.0°C 79% Calm Calm 1.0 mph1.6 kmh 30.07 in1018.3 mb 0.00 in0.0 mm 0.00 in0.0 mm 0.00 in0.0 mm
02:15 AM 28.7°F-1.8°C 23.0°F-5.0°C 79% Calm Calm 2.0 mph3.2 kmh 30.07 in1018.3 mb 0.00 in0.0 mm 0.00 in0.0 mm 0.00 in0.0 mm
02:10 AM 28.7°F-1.8°C 23.0°F-5.0°C 79% Calm Calm 3.0 mph4.8 kmh 30.07 in1018.3 mb 0.00 in0.0 mm 0.00 in0.0 mm 0.00 in0.0 mm
02:05 AM 28.7°F-1.8°C 23.0°F-5.0°C 79% Calm Calm 3.0 mph4.8 kmh 30.07 in1018.3 mb 0.00 in0.0 mm 0.00 in0.0 mm 0.00 in0.0 mm
02:00 AM 28.7°F-1.8°C 23.0°F-5.0°C 79% Calm Calm 3.0 mph4.8 kmh 30.06 in1017.9 mb 0.00 in0.0 mm 0.00 in0.0 mm 0.00 in0.0 mm
01:55 AM 28.7°F-1.8°C 23.0°F-5.0°C 79% Calm Calm 3.0 mph4.8 kmh 30.06 in1017.9 mb 0.00 in0.0 mm 0.00 in0.0 mm 0.00 in0.0 mm
01:50 AM 28.7°F-1.8°C 23.0°F-5.0°C 79% 2.0 mph WSW3.2 kmh WSW 3.0 mph4.8 kmh 30.06 in1017.9 mb 0.00 in0.0 mm 0.00 in0.0 mm 0.00 in0.0 mm
01:45 AM 28.7°F-1.8°C 23.0°F-5.0°C 79% 1.0 mph WSW1.6 kmh WSW 2.0 mph3.2 kmh 30.06 in1017.9 mb 0.00 in0.0 mm 0.00 in0.0 mm 0.00 in0.0 mm
01:40 AM 28.6°F-1.9°C 23.0°F-5.0°C 79% 1.0 mph WSW1.6 kmh WSW 2.0 mph3.2 kmh 30.06 in1017.9 mb 0.00 in0.0 mm 0.00 in0.0 mm 0.00 in0.0 mm
01:35 AM 28.6°F-1.9°C 23.0°F-5.0°C 79% Calm Calm 2.0 mph3.2 kmh 30.06 in1017.9 mb 0.00 in0.0 mm 0.00 in0.0 mm 0.00 in0.0 mm
01:30 AM 28.6°F-1.9°C 23.0°F-5.0°C 79% Calm Calm 2.0 mph3.2 kmh 30.06 in1017.9 mb 0.00 in0.0 mm 0.00 in0.0 mm 0.00 in0.0 mm
01:25 AM 28.6°F-1.9°C 23.0°F-5.0°C 79% 1.0 mph WSW1.6 kmh WSW 2.0 mph3.2 kmh 30.06 in1017.9 mb 0.00 in0.0 mm 0.00 in0.0 mm 0.00 in0.0 mm
01:20 AM 28.7°F-1.8°C 23.0°F-5.0°C 79% Calm Calm 2.0 mph3.2 kmh 30.05 in1017.6 mb 0.00 in0.0 mm 0.00 in0.0 mm 0.00 in0.0 mm
01:15 AM 28.7°F-1.8°C 23.0°F-5.0°C 79% Calm Calm 1.0 mph1.6 kmh 30.05 in1017.6 mb 0.00 in0.0 mm 0.00 in0.0 mm 0.00 in0.0 mm
01:10 AM 28.7°F-1.8°C 23.0°F-5.0°C 79% Calm Calm 3.0 mph4.8 kmh 30.06 in1017.9 mb 0.00 in0.0 mm 0.00 in0.0 mm 0.00 in0.0 mm
01:05 AM 28.7°F-1.8°C 23.0°F-5.0°C 79% Calm Calm 3.0 mph4.8 kmh 30.06 in1017.9 mb 0.00 in0.0 mm 0.00 in0.0 mm 0.00 in0.0 mm
01:00 AM 28.7°F-1.8°C 23.0°F-5.0°C 79% 1.0 mph NW1.6 kmh NW 3.0 mph4.8 kmh 30.05 in1017.6 mb 0.00 in0.0 mm 0.00 in0.0 mm 0.00 in0.0 mm
12:55 AM 28.7°F-1.8°C 23.0°F-5.0°C 79% 3.0 mph NW4.8 kmh NW 3.0 mph4.8 kmh 30.05 in1017.6 mb 0.00 in0.0 mm 0.00 in0.0 mm 0.00 in0.0 mm
12:50 AM 28.7°F-1.8°C 23.0°F-5.0°C 79% 1.0 mph WNW1.6 kmh WNW 3.0 mph4.8 kmh 30.05 in1017.6 mb 0.00 in0.0 mm 0.00 in0.0 mm 0.00 in0.0 mm
12:45 AM 28.6°F-1.9°C 23.0°F-5.0°C 79% 3.0 mph WSW4.8 kmh WSW 5.0 mph8.0 kmh 30.06 in1017.9 mb 0.00 in0.0 mm 0.00 in0.0 mm 0.00 in0.0 mm
12:40 AM 28.7°F-1.8°C 23.0°F-5.0°C 79% 2.0 mph WSW3.2 kmh WSW 5.0 mph8.0 kmh 30.06 in1017.9 mb 0.00 in0.0 mm 0.00 in0.0 mm 0.00 in0.0 mm
12:35 AM 28.7°F-1.8°C 23.0°F-5.0°C 79% 1.0 mph WSW1.6 kmh WSW 4.0 mph6.4 kmh 30.06 in1017.9 mb 0.00 in0.0 mm 0.00 in0.0 mm 0.00 in0.0 mm
12:30 AM 28.6°F-1.9°C 23.0°F-5.0°C 80% 3.0 mph WSW4.8 kmh WSW 4.0 mph6.4 kmh 30.06 in1017.9 mb 0.00 in0.0 mm 0.00 in0.0 mm 0.00 in0.0 mm
12:25 AM 28.5°F-1.9°C 23.0°F-5.0°C 80% 3.0 mph WSW4.8 kmh WSW 5.0 mph8.0 kmh 30.06 in1017.9 mb 0.00 in0.0 mm 0.00 in0.0 mm 0.00 in0.0 mm
12:20 AM 28.5°F-1.9°C 23.0°F-5.0°C 80% 4.0 mph WSW6.4 kmh WSW 5.0 mph8.0 kmh 30.06 in1017.9 mb 0.00 in0.0 mm 0.00 in0.0 mm 0.00 in0.0 mm
12:15 AM 28.4°F-2.0°C 23.0°F-5.0°C 80% 3.0 mph W4.8 kmh W 5.0 mph8.0 kmh 30.06 in1017.9 mb 0.00 in0.0 mm 0.00 in0.0 mm 0.00 in0.0 mm
12:10 AM 28.3°F-2.1°C 23.0°F-5.0°C 81% 3.0 mph W4.8 kmh W 4.0 mph6.4 kmh 30.06 in1017.9 mb 0.00 in0.0 mm 0.00 in0.0 mm 0.00 in0.0 mm
12:05 AM 28.2°F-2.1°C 23.0°F-5.0°C 80% 3.0 mph WSW4.8 kmh WSW 4.0 mph6.4 kmh 30.05 in1017.6 mb 0.00 in0.0 mm 0.00 in0.0 mm 0.00 in0.0 mm
12:00 AM 28.2°F-2.1°C 23.0°F-5.0°C 81% 2.0 mph WSW3.2 kmh WSW 4.0 mph6.4 kmh 30.05 in1017.6 mb 0.00 in0.0 mm 0.00 in0.0 mm 0.00 in0.0 mm